createdAt,value
2018-12-23T00:00:11.063Z,7.10
2018-12-23T00:02:41.715Z,7.10
2018-12-23T00:05:15.372Z,7.10
2018-12-23T00:07:46.178Z,7.00
2018-12-23T00:10:17.151Z,7.00
2018-12-23T00:12:48.035Z,7.00
2018-12-23T00:15:25.334Z,7.00
2018-12-23T00:17:56.304Z,7.00
2018-12-23T00:20:26.914Z,7.00
2018-12-23T00:22:57.794Z,7.00
2018-12-23T00:25:28.655Z,7.00
2018-12-23T00:27:59.195Z,7.00
2018-12-23T00:30:30.004Z,6.90
2018-12-23T00:33:00.785Z,6.90
2018-12-23T00:35:31.481Z,6.90
2018-12-23T00:38:02.305Z,6.90
2018-12-23T00:40:33.193Z,6.90
2018-12-23T00:43:03.956Z,6.90
2018-12-23T00:45:34.821Z,6.90
2018-12-23T00:48:05.588Z,6.90
2018-12-23T00:50:39.079Z,6.90
2018-12-23T00:53:09.922Z,6.90
2018-12-23T00:55:43.435Z,6.90
2018-12-23T00:58:14.402Z,6.90
2018-12-23T01:00:45.478Z,6.90
2018-12-23T01:03:19.928Z,6.90
2018-12-23T01:05:51.196Z,6.90
2018-12-23T01:08:22.079Z,6.90
2018-12-23T01:10:55.675Z,6.90
2018-12-23T01:13:27.087Z,6.90
2018-12-23T01:15:57.718Z,6.80
2018-12-23T01:18:29.412Z,6.80
2018-12-23T01:21:00.183Z,6.80
2018-12-23T01:23:31.507Z,6.70
2018-12-23T01:26:05.147Z,6.80
2018-12-23T01:28:36.007Z,6.80
2018-12-23T01:31:06.845Z,6.70
2018-12-23T01:33:37.694Z,6.80
2018-12-23T01:36:13.727Z,6.80
2018-12-23T01:38:47.864Z,6.80
2018-12-23T01:41:19.031Z,6.80
2018-12-23T01:43:49.940Z,6.80
2018-12-23T01:46:23.532Z,6.80
2018-12-23T01:48:54.387Z,6.70
2018-12-23T01:51:28.058Z,6.70
2018-12-23T01:54:01.851Z,6.70
2018-12-23T01:56:32.761Z,6.80
2018-12-23T01:59:06.472Z,6.70
2018-12-23T02:01:37.446Z,6.70
2018-12-23T02:04:08.236Z,6.70
2018-12-23T02:06:39.265Z,6.70
2018-12-23T02:09:10.059Z,6.70
2018-12-23T02:11:40.927Z,6.70
2018-12-23T02:14:14.452Z,6.70
2018-12-23T02:16:45.256Z,6.80
2018-12-23T02:19:18.827Z,6.90
2018-12-23T02:21:52.346Z,6.90
2018-12-23T02:24:26.464Z,6.90
2018-12-23T02:26:59.881Z,6.90
2018-12-23T02:32:28.403Z,7.00
2018-12-23T02:35:02.878Z,6.90
2018-12-23T02:37:36.875Z,6.90
2018-12-23T02:40:07.880Z,6.90
2018-12-23T02:42:38.685Z,6.90
2018-12-23T02:45:09.616Z,6.80
2018-12-23T02:47:40.231Z,6.80
2018-12-23T02:50:13.855Z,6.80
2018-12-23T02:52:44.996Z,6.80
2018-12-23T02:55:18.355Z,6.80
2018-12-23T02:58:06.024Z,6.80
2018-12-23T03:00:40.608Z,6.80
2018-12-23T03:03:11.487Z,6.80
2018-12-23T03:05:42.217Z,6.80
2018-12-23T03:08:13.017Z,6.80
2018-12-23T03:10:46.517Z,6.80
2018-12-23T03:13:20.402Z,6.80
2018-12-23T03:15:51.303Z,6.80
2018-12-23T03:18:22.049Z,6.70
2018-12-23T03:20:52.583Z,6.80
2018-12-23T03:23:23.463Z,6.80
2018-12-23T03:25:56.943Z,6.70
2018-12-23T03:28:30.633Z,6.70
2018-12-23T03:31:04.667Z,6.70
2018-12-23T03:33:35.763Z,6.70
2018-12-23T03:36:14.750Z,6.60
2018-12-23T03:38:42.225Z,6.70
2018-12-23T03:41:16.137Z,6.70
2018-12-23T03:44:04.788Z,6.60
2018-12-23T03:46:38.664Z,6.60
2018-12-23T03:49:12.440Z,6.60
2018-12-23T03:51:46.192Z,6.60
2018-12-23T03:54:17.574Z,6.60
2018-12-23T03:56:51.162Z,6.60
2018-12-23T03:59:25.098Z,6.60
2018-12-23T04:01:56.098Z,6.60
2018-12-23T04:04:29.638Z,6.60
2018-12-23T04:07:00.926Z,6.60
2018-12-23T04:09:31.501Z,6.70
2018-12-23T04:12:04.942Z,6.70
2018-12-23T04:14:35.915Z,6.60
2018-12-23T04:17:09.378Z,6.60
2018-12-23T04:19:43.170Z,6.60
2018-12-23T04:22:14.356Z,6.60
2018-12-23T04:24:48.115Z,6.60
2018-12-23T04:27:19.295Z,6.70
2018-12-23T04:29:55.123Z,6.60
2018-12-23T04:32:25.906Z,6.70
2018-12-23T04:34:56.697Z,6.70
2018-12-23T04:37:30.271Z,6.70
2018-12-23T04:40:04.302Z,6.70
2018-12-23T04:42:35.170Z,6.70
2018-12-23T04:45:05.941Z,6.70
2018-12-23T04:47:39.571Z,6.60
2018-12-23T04:50:10.244Z,6.60
2018-12-23T04:52:41.100Z,6.50
2018-12-23T04:55:14.864Z,6.40
2018-12-23T04:57:48.371Z,6.40
2018-12-23T05:00:19.273Z,6.40
2018-12-23T05:02:49.924Z,6.40
2018-12-23T05:05:23.373Z,6.40
2018-12-23T05:07:54.352Z,6.30
2018-12-23T05:10:27.779Z,6.30
2018-12-23T05:13:01.605Z,6.30
2018-12-23T05:15:32.652Z,6.40
2018-12-23T05:18:03.315Z,6.40
2018-12-23T05:20:34.168Z,6.40
2018-12-23T05:23:07.653Z,6.40
2018-12-23T05:25:41.323Z,6.50
2018-12-23T05:28:14.726Z,6.40
2018-12-23T05:30:45.510Z,6.40
2018-12-23T05:33:19.131Z,6.40
2018-12-23T05:35:52.717Z,6.50
2018-12-23T05:38:26.340Z,6.50
2018-12-23T05:40:57.224Z,6.40
2018-12-23T05:43:28.002Z,6.40
2018-12-23T05:46:01.382Z,6.50
2018-12-23T05:48:35.272Z,6.50
2018-12-23T05:51:06.372Z,6.50
2018-12-23T05:53:37.067Z,6.50
2018-12-23T05:56:10.496Z,6.50
2018-12-23T05:58:44.197Z,6.50
2018-12-23T06:01:17.755Z,6.50
2018-12-23T06:03:48.505Z,6.50
2018-12-23T06:06:21.940Z,6.50
2018-12-23T06:08:54.571Z,6.50
2018-12-23T06:11:25.459Z,6.40
2018-12-23T06:13:56.161Z,6.50
2018-12-23T06:16:26.976Z,6.40
2018-12-23T06:19:00.596Z,6.40
2018-12-23T06:21:34.386Z,6.40
2018-12-23T06:24:07.932Z,6.40
2018-12-23T06:26:41.693Z,6.40
2018-12-23T06:29:12.764Z,6.40
2018-12-23T06:31:43.750Z,6.50
2018-12-23T06:34:17.203Z,6.40
2018-12-23T06:36:50.949Z,6.50
2018-12-23T06:39:24.471Z,6.50
2018-12-23T06:41:55.452Z,6.50
2018-12-23T06:44:35.439Z,6.50
2018-12-23T06:50:01.556Z,6.40
2018-12-23T06:55:32.429Z,6.40
2018-12-23T06:58:06.023Z,6.40
2018-12-23T07:00:39.553Z,6.40
2018-12-23T07:03:13.263Z,6.40
2018-12-23T07:05:53.726Z,6.30
2018-12-23T07:08:31.507Z,6.30
2018-12-23T07:11:11.940Z,6.40
2018-12-23T07:13:45.659Z,6.30
2018-12-23T07:16:21.208Z,6.30
2018-12-23T07:18:48.723Z,6.40
2018-12-23T07:21:16.269Z,6.30
2018-12-23T07:23:50.518Z,6.40
2018-12-23T07:26:18.059Z,6.40
2018-12-23T07:28:51.012Z,6.40
2018-12-23T07:31:18.575Z,6.30
2018-12-23T07:33:48.363Z,6.40
2018-12-23T07:36:20.740Z,6.40
2018-12-23T07:38:48.274Z,6.30
2018-12-23T07:41:19.327Z,6.40
2018-12-23T07:43:46.873Z,6.40
2018-12-23T07:46:14.476Z,6.50
2018-12-23T07:48:47.822Z,6.50
2018-12-23T07:51:34.615Z,6.50
2018-12-23T07:54:08.766Z,6.50
2018-12-23T07:56:39.661Z,6.60
2018-12-23T07:59:10.414Z,6.60
2018-12-23T08:01:43.980Z,6.70
2018-12-23T08:04:15.063Z,6.70
2018-12-23T08:06:48.419Z,6.70
2018-12-23T08:09:19.303Z,6.70
2018-12-23T08:11:52.927Z,6.70
2018-12-23T08:14:24.178Z,6.80
2018-12-23T08:16:57.616Z,6.80
2018-12-23T08:19:28.576Z,6.80
2018-12-23T08:21:59.210Z,6.80
2018-12-23T08:24:33.221Z,6.80
2018-12-23T08:27:06.513Z,6.80
2018-12-23T08:29:40.073Z,6.90
2018-12-23T08:32:11.030Z,6.90
2018-12-23T08:34:42.205Z,6.90
2018-12-23T08:37:16.364Z,6.80
2018-12-23T08:39:50.239Z,6.90
2018-12-23T08:42:24.109Z,6.90
2018-12-23T08:44:56.079Z,7.00
2018-12-23T08:47:27.107Z,7.00
2018-12-23T08:50:01.533Z,7.00
2018-12-23T08:52:32.541Z,7.10
2018-12-23T08:55:06.042Z,7.20
2018-12-23T08:57:39.785Z,7.20
2018-12-23T09:00:10.893Z,7.20
2018-12-23T09:02:44.475Z,7.30
2018-12-23T09:05:18.169Z,7.20
2018-12-23T09:07:52.976Z,7.30
2018-12-23T09:10:22.226Z,7.30
2018-12-23T09:12:52.920Z,7.10
2018-12-23T09:15:28.450Z,7.20
2018-12-23T09:17:59.658Z,7.20
2018-12-23T09:20:30.609Z,7.30
2018-12-23T09:23:04.209Z,7.30
2018-12-23T09:25:35.196Z,7.40
2018-12-23T09:28:08.990Z,7.40
2018-12-23T09:30:39.851Z,7.40
2018-12-23T09:33:10.656Z,7.40
2018-12-23T09:35:41.440Z,7.50
2018-12-23T09:43:12.347Z,7.60
2018-12-23T09:48:15.596Z,7.70
2018-12-23T09:50:49.210Z,7.60
2018-12-23T09:53:20.296Z,7.70
2018-12-23T09:55:50.921Z,7.70
2018-12-23T09:58:24.464Z,7.70
2018-12-23T10:00:55.460Z,7.70
2018-12-23T10:03:26.026Z,7.70
2018-12-23T10:05:59.663Z,7.70
2018-12-23T10:08:28.613Z,7.80
2018-12-23T10:10:57.348Z,7.80
2018-12-23T10:16:21.816Z,7.90
2018-12-23T10:18:49.356Z,7.80
2018-12-23T10:21:20.320Z,7.90
2018-12-23T10:23:51.164Z,7.90
2018-12-23T10:26:24.500Z,7.90
2018-12-23T10:28:57.972Z,7.90
2018-12-23T10:31:31.673Z,7.90
2018-12-23T10:34:05.453Z,7.90
2018-12-23T10:36:36.244Z,7.90
2018-12-23T10:39:06.872Z,7.90
2018-12-23T10:41:40.184Z,7.90
2018-12-23T10:44:10.979Z,7.80
2018-12-23T10:46:44.431Z,7.80
2018-12-23T10:49:18.004Z,7.90
2018-12-23T10:51:51.584Z,7.90
2018-12-23T10:54:25.254Z,7.90
2018-12-23T10:56:56.180Z,8.00
2018-12-23T10:59:31.667Z,8.10
2018-12-23T11:02:13.468Z,8.10
2018-12-23T11:04:38.099Z,8.20
2018-12-23T11:07:08.826Z,8.30
2018-12-23T11:09:39.589Z,8.30
2018-12-23T11:12:10.400Z,8.30
2018-12-23T11:14:41.135Z,8.40
2018-12-23T11:17:11.831Z,8.40
2018-12-23T11:19:46.081Z,8.40
2018-12-23T11:22:17.270Z,8.40
2018-12-23T11:24:52.052Z,8.40
2018-12-23T11:27:26.932Z,8.40
2018-12-23T11:30:03.103Z,8.30
2018-12-23T11:32:38.421Z,8.30
2018-12-23T11:35:11.961Z,8.30
2018-12-23T11:37:45.416Z,8.30
2018-12-23T11:40:19.073Z,8.40
2018-12-23T11:42:58.725Z,8.40
2018-12-23T11:45:29.617Z,8.50
2018-12-23T11:48:03.211Z,8.50
2018-12-23T11:50:36.907Z,8.50
2018-12-23T11:53:07.818Z,8.40
2018-12-23T11:55:41.415Z,8.40
2018-12-23T11:58:12.140Z,8.40
2018-12-23T12:00:45.611Z,8.50
2018-12-23T12:03:19.273Z,8.50
2018-12-23T12:05:53.234Z,8.60
2018-12-23T12:08:24.750Z,8.60
2018-12-23T12:10:55.432Z,8.50
2018-12-23T12:13:28.907Z,8.50
2018-12-23T12:16:02.569Z,8.40
2018-12-23T12:18:33.537Z,8.40
2018-12-23T12:21:04.283Z,8.50
2018-12-23T12:23:35.717Z,8.50
2018-12-23T12:26:06.490Z,8.50
2018-12-23T12:28:37.283Z,8.50
2018-12-23T12:31:08.094Z,8.40
2018-12-23T12:33:41.514Z,8.50
2018-12-23T12:36:09.039Z,8.50
2018-12-23T12:38:36.606Z,8.40
2018-12-23T12:41:04.145Z,8.50
2018-12-23T12:43:31.681Z,8.40
2018-12-23T12:46:00.667Z,8.50
2018-12-23T12:48:28.481Z,8.60
2018-12-23T12:51:11.135Z,8.60
2018-12-23T12:53:47.013Z,8.60
2018-12-23T12:56:14.537Z,8.60
2018-12-23T12:58:42.107Z,8.50
2018-12-23T13:01:12.752Z,8.60
2018-12-23T13:03:46.081Z,8.60
2018-12-23T13:06:13.624Z,8.60
2018-12-23T13:08:41.162Z,8.60
2018-12-23T13:11:08.675Z,8.60
2018-12-23T13:13:36.219Z,8.60
2018-12-23T13:16:03.747Z,8.50
2018-12-23T13:18:31.282Z,8.60
2018-12-23T13:20:58.814Z,8.60
2018-12-23T13:23:26.360Z,8.60
2018-12-23T13:25:53.869Z,8.60
2018-12-23T13:28:21.371Z,8.50
2018-12-23T13:30:48.896Z,8.50
2018-12-23T13:33:16.398Z,8.50
2018-12-23T13:35:43.936Z,8.60
2018-12-23T13:38:11.486Z,8.60
2018-12-23T13:40:54.366Z,8.50
2018-12-23T13:47:08.796Z,8.40
2018-12-23T13:50:14.176Z,8.50
2018-12-23T13:52:45.920Z,8.50
2018-12-23T13:55:32.480Z,8.40
2018-12-23T13:58:19.033Z,8.30
2018-12-23T14:00:53.557Z,8.40
2018-12-23T14:03:41.888Z,8.30
2018-12-23T14:06:28.856Z,8.20
2018-12-23T14:09:17.125Z,8.10
2018-12-23T14:11:57.805Z,8.10
2018-12-23T14:14:26.296Z,8.10
2018-12-23T14:16:54.822Z,8.10
2018-12-23T14:19:23.370Z,8.10
2018-12-23T14:21:51.790Z,8.00
2018-12-23T14:24:20.260Z,8.10
2018-12-23T14:26:48.801Z,8.10
2018-12-23T14:29:17.271Z,8.00
2018-12-23T14:31:45.784Z,7.90
2018-12-23T14:34:14.253Z,7.90
2018-12-23T14:36:42.777Z,7.80
2018-12-23T14:39:11.324Z,7.90
2018-12-23T14:41:39.828Z,7.80
2018-12-23T14:44:08.316Z,7.80
2018-12-23T14:46:36.826Z,7.80
2018-12-23T14:49:05.331Z,7.80
2018-12-23T14:51:33.807Z,7.80
2018-12-23T14:54:02.301Z,7.70
2018-12-23T14:56:30.795Z,7.70
2018-12-23T14:58:59.281Z,7.60
2018-12-23T15:01:27.812Z,7.60
2018-12-23T15:03:56.276Z,7.70
2018-12-23T15:06:24.793Z,7.70
2018-12-23T15:08:53.272Z,7.60
2018-12-23T15:11:21.773Z,7.60
2018-12-23T15:13:50.257Z,7.50
2018-12-23T15:16:18.833Z,7.50
2018-12-23T15:18:47.308Z,7.50
2018-12-23T15:21:15.839Z,7.50
2018-12-23T15:23:44.368Z,7.50
2018-12-23T15:26:12.888Z,7.50
2018-12-23T15:28:41.370Z,7.40
2018-12-23T15:31:09.995Z,7.50
2018-12-23T15:33:38.457Z,7.50
2018-12-23T15:36:06.978Z,7.50
2018-12-23T15:38:35.479Z,7.40
2018-12-23T15:41:03.891Z,7.40
2018-12-23T15:43:32.464Z,7.40
2018-12-23T15:46:00.976Z,7.30
2018-12-23T15:48:29.501Z,7.30
2018-12-23T15:50:57.981Z,7.20
2018-12-23T15:53:26.575Z,7.20
2018-12-23T15:55:55.056Z,7.10
2018-12-23T15:58:23.566Z,7.10
2018-12-23T16:00:52.047Z,7.10
2018-12-23T16:03:20.640Z,7.00
2018-12-23T16:05:49.142Z,6.90
2018-12-23T16:08:17.713Z,6.90
2018-12-23T16:10:46.254Z,6.90
2018-12-23T16:13:14.896Z,6.90
2018-12-23T16:15:43.423Z,6.80
2018-12-23T16:18:11.933Z,6.80
2018-12-23T16:20:40.392Z,6.80
2018-12-23T16:23:08.915Z,6.70
2018-12-23T16:25:37.405Z,6.70
2018-12-23T16:28:07.627Z,6.70
2018-12-23T16:30:36.027Z,6.70
2018-12-23T16:33:04.551Z,6.70
2018-12-23T16:35:33.061Z,6.70
2018-12-23T16:38:01.578Z,6.70
2018-12-23T16:40:30.091Z,6.70
2018-12-23T16:42:58.731Z,6.70
2018-12-23T16:45:27.431Z,6.70
2018-12-23T16:47:55.925Z,6.70
2018-12-23T16:50:24.453Z,6.60
2018-12-23T16:52:54.701Z,6.60
2018-12-23T16:55:23.153Z,6.60
2018-12-23T16:57:51.656Z,6.60
2018-12-23T17:00:20.131Z,6.50
2018-12-23T17:02:48.661Z,6.50
2018-12-23T17:05:17.160Z,6.50
2018-12-23T17:07:45.673Z,6.50
2018-12-23T17:10:14.186Z,6.40
2018-12-23T17:12:42.655Z,6.40
2018-12-23T17:15:11.156Z,6.50
2018-12-23T17:17:39.638Z,6.40
2018-12-23T17:20:10.183Z,6.30
2018-12-23T17:22:38.676Z,6.30
2018-12-23T17:25:07.184Z,6.30
2018-12-23T17:27:35.729Z,6.30
2018-12-23T17:30:07.893Z,6.30
2018-12-23T17:32:36.351Z,6.30
2018-12-23T17:35:05.035Z,6.40
2018-12-23T17:37:33.488Z,6.30
2018-12-23T17:40:02.057Z,6.30
2018-12-23T17:42:30.531Z,6.30
2018-12-23T17:44:59.043Z,6.30
2018-12-23T17:47:27.620Z,6.30
2018-12-23T17:49:56.127Z,6.30
2018-12-23T17:52:24.717Z,6.30
2018-12-23T17:54:53.224Z,6.30
2018-12-23T17:57:21.699Z,6.30
2018-12-23T17:59:50.222Z,6.30
2018-12-23T18:02:18.702Z,6.30
2018-12-23T18:04:47.212Z,6.30
2018-12-23T18:07:15.751Z,6.30
2018-12-23T18:09:44.216Z,6.30
2018-12-23T18:12:12.682Z,6.30
2018-12-23T18:14:41.276Z,6.30
2018-12-23T18:17:09.784Z,6.30
2018-12-23T18:19:38.284Z,6.30
2018-12-23T18:22:06.784Z,6.30
2018-12-23T18:24:35.308Z,6.30
2018-12-23T18:27:03.800Z,6.30
2018-12-23T18:29:32.331Z,6.30
2018-12-23T18:32:00.885Z,6.40
2018-12-23T18:34:29.366Z,6.40
2018-12-23T18:36:57.916Z,6.40
2018-12-23T18:39:26.403Z,6.30
2018-12-23T18:41:54.938Z,6.30
2018-12-23T18:44:23.397Z,6.30
2018-12-23T18:46:51.989Z,6.30
2018-12-23T18:49:20.495Z,6.30
2018-12-23T18:51:49.006Z,6.30
2018-12-23T18:54:17.491Z,6.30
2018-12-23T18:56:46.009Z,6.40
2018-12-23T18:59:14.638Z,6.30
2018-12-23T19:01:43.474Z,6.30
2018-12-23T19:04:12.317Z,6.30
2018-12-23T19:06:40.846Z,6.40
2018-12-23T19:09:10.099Z,6.40
2018-12-23T19:11:44.968Z,6.40
2018-12-23T19:14:50.135Z,6.50
2018-12-23T19:17:24.914Z,6.50
2018-12-23T19:20:02.234Z,6.60
2018-12-23T19:23:04.327Z,6.60
2018-12-23T19:26:04.489Z,6.70
2018-12-23T19:28:41.475Z,6.60
2018-12-23T19:31:31.596Z,6.70
2018-12-23T19:34:12.164Z,6.70
2018-12-23T19:37:13.677Z,6.80
2018-12-23T19:39:57.220Z,6.90
2018-12-23T19:42:48.369Z,7.10
2018-12-23T19:45:35.378Z,7.10
2018-12-23T19:48:18.078Z,7.30
2018-12-23T19:51:01.697Z,7.40
2018-12-23T19:53:42.545Z,7.50
2018-12-23T19:56:20.372Z,7.60
2018-12-23T19:59:03.731Z,7.60
2018-12-23T20:01:56.550Z,7.70
2018-12-23T20:04:43.330Z,7.70
2018-12-23T20:07:21.017Z,7.70
2018-12-23T20:09:55.722Z,7.70
2018-12-23T20:12:45.575Z,7.70
2018-12-23T20:15:28.939Z,7.80
2018-12-23T20:18:35.141Z,7.80
2018-12-23T20:21:15.673Z,7.80
2018-12-23T20:24:05.886Z,7.80
2018-12-23T20:27:09.584Z,7.80
2018-12-23T20:30:02.079Z,7.80
2018-12-23T20:32:42.595Z,7.80
2018-12-23T20:35:14.355Z,7.80
2018-12-23T20:38:18.233Z,7.90
2018-12-23T20:41:07.554Z,8.00
2018-12-23T20:43:35.252Z,8.00
2018-12-23T20:46:34.377Z,8.10
2018-12-23T20:49:24.448Z,8.10
2018-12-23T20:52:20.372Z,8.20
2018-12-23T20:55:25.659Z,8.30
2018-12-23T20:58:02.931Z,8.40
2018-12-23T21:00:59.280Z,8.40
2018-12-23T21:04:01.097Z,8.50
2018-12-23T21:07:08.805Z,8.60
2018-12-23T21:09:59.601Z,8.70
2018-12-23T21:12:55.155Z,8.80
2018-12-23T21:15:26.938Z,8.90
2018-12-23T21:18:10.293Z,9.00
2018-12-23T21:21:07.871Z,9.10
2018-12-23T21:23:57.560Z,9.10
2018-12-23T21:26:44.226Z,9.20
2018-12-23T21:29:31.347Z,9.20
2018-12-23T21:32:15.493Z,9.30
2018-12-23T21:34:59.044Z,9.30
2018-12-23T21:37:30.795Z,9.40
2018-12-23T21:40:08.221Z,9.40
2018-12-23T21:43:13.252Z,9.40
2018-12-23T21:45:53.761Z,9.40
2018-12-23T21:48:28.324Z,9.50
2018-12-23T21:51:19.582Z,9.40
2018-12-23T21:54:03.776Z,9.50
2018-12-23T21:56:59.935Z,9.50
2018-12-23T21:59:34.456Z,9.50
2018-12-23T22:02:27.356Z,9.60
2018-12-23T22:05:15.624Z,9.60
2018-12-23T22:07:59.060Z,9.60
2018-12-23T22:10:48.942Z,9.70
2018-12-23T22:13:26.438Z,9.70
2018-12-23T22:15:55.060Z,9.70
2018-12-23T22:18:23.535Z,9.70
2018-12-23T22:20:52.051Z,9.70
2018-12-23T22:23:20.527Z,9.70
2018-12-23T22:25:49.173Z,9.80
2018-12-23T22:28:17.680Z,9.80
2018-12-23T22:30:46.169Z,9.80
2018-12-23T22:33:14.657Z,9.90
2018-12-23T22:35:43.224Z,9.90
2018-12-23T22:38:11.666Z,9.90
2018-12-23T22:40:40.418Z,9.90
2018-12-23T22:43:08.939Z,9.90
2018-12-23T22:45:37.407Z,9.90
2018-12-23T22:48:05.945Z,9.90
2018-12-23T22:50:34.415Z,9.80
2018-12-23T22:53:03.049Z,9.90
2018-12-23T22:55:31.531Z,9.90
2018-12-23T22:58:00.049Z,10.00
2018-12-23T23:00:30.196Z,10.00
2018-12-23T23:02:58.721Z,10.00
2018-12-23T23:05:27.200Z,10.00
2018-12-23T23:07:55.734Z,10.10
2018-12-23T23:10:24.342Z,10.10
2018-12-23T23:12:52.853Z,10.20
2018-12-23T23:15:21.344Z,10.20
2018-12-23T23:17:49.856Z,10.10
2018-12-23T23:20:18.338Z,10.20
2018-12-23T23:22:46.854Z,10.10
2018-12-23T23:25:15.369Z,10.10
2018-12-23T23:27:43.872Z,10.20
2018-12-23T23:30:12.371Z,10.20
2018-12-23T23:32:40.884Z,10.20
2018-12-23T23:35:09.376Z,10.20
2018-12-23T23:37:37.872Z,10.20
2018-12-23T23:40:06.361Z,10.20
2018-12-23T23:42:34.872Z,10.20
2018-12-23T23:45:03.347Z,10.20
2018-12-23T23:47:31.845Z,10.30
2018-12-23T23:50:00.336Z,10.20
2018-12-23T23:52:28.987Z,10.20
2018-12-23T23:54:57.484Z,10.30
2018-12-23T23:57:25.963Z,10.30
2018-12-23T23:59:54.477Z,10.30
